createdAt,value
2023-04-22T00:01:24.722Z,3.58
2023-04-22T00:03:52.065Z,3.05
2023-04-22T00:06:19.039Z,3.72
2023-04-22T00:08:45.401Z,3.40
2023-04-22T00:11:11.846Z,3.85
2023-04-22T00:13:38.219Z,3.47
2023-04-22T00:16:05.020Z,3.33
2023-04-22T00:18:33.652Z,3.08
2023-04-22T00:21:00.033Z,3.90
2023-04-22T00:23:26.447Z,3.53
2023-04-22T00:25:52.940Z,3.83
2023-04-22T00:28:19.486Z,3.47
2023-04-22T00:30:46.152Z,3.70
2023-04-22T00:33:12.593Z,3.35
2023-04-22T00:35:39.042Z,3.85
2023-04-22T00:38:05.493Z,3.17
2023-04-22T00:40:31.894Z,3.60
2023-04-22T00:43:00.293Z,3.00
2023-04-22T00:45:26.834Z,3.38
2023-04-22T00:47:53.444Z,2.55
2023-04-22T00:50:19.895Z,3.00
2023-04-22T00:52:46.340Z,3.00
2023-04-22T00:55:12.842Z,2.60
2023-04-22T00:57:40.281Z,2.78
2023-04-22T01:00:09.616Z,2.85
2023-04-22T01:02:38.800Z,3.40
2023-04-22T01:05:09.454Z,3.10
2023-04-22T01:07:36.444Z,3.00
2023-04-22T01:10:04.579Z,2.53
2023-04-22T01:12:31.026Z,2.28
2023-04-22T01:14:57.542Z,2.63
2023-04-22T01:17:24.601Z,2.58
2023-04-22T01:19:52.616Z,2.70
2023-04-22T01:22:20.689Z,2.72
2023-04-22T01:24:47.325Z,3.15
2023-04-22T01:27:14.214Z,3.13
2023-04-22T01:29:41.126Z,3.63
2023-04-22T01:32:07.947Z,3.05
2023-04-22T01:34:34.545Z,3.10
2023-04-22T01:37:00.946Z,3.00
2023-04-22T01:39:33.882Z,3.10
2023-04-22T01:42:03.122Z,2.78
2023-04-22T01:44:29.577Z,2.72
2023-04-22T01:46:56.071Z,2.72
2023-04-22T01:49:22.452Z,2.53
2023-04-22T01:51:50.262Z,3.25
2023-04-22T01:54:16.667Z,3.40
2023-04-22T01:56:50.033Z,3.13
2023-04-22T01:59:17.492Z,2.53
2023-04-22T02:01:44.017Z,2.50
2023-04-22T02:04:10.669Z,2.42
2023-04-22T02:06:37.144Z,2.65
2023-04-22T02:09:05.837Z,2.80
2023-04-22T02:11:32.624Z,2.53
2023-04-22T02:13:59.051Z,2.38
2023-04-22T02:16:25.540Z,2.83
2023-04-22T02:18:52.040Z,2.60
2023-04-22T02:21:18.412Z,2.88
2023-04-22T02:23:45.034Z,2.55
2023-04-22T02:26:11.454Z,3.47
2023-04-22T02:28:37.887Z,3.38
2023-04-22T02:31:04.406Z,3.30
2023-04-22T02:33:30.802Z,2.60
2023-04-22T02:35:57.186Z,2.38
2023-04-22T02:38:23.723Z,3.10
2023-04-22T02:40:50.069Z,3.15
2023-04-22T02:43:16.938Z,3.38
2023-04-22T02:45:44.087Z,3.33
2023-04-22T02:48:10.680Z,3.65
2023-04-22T02:50:37.162Z,3.42
2023-04-22T02:53:03.662Z,3.45
2023-04-22T02:55:30.262Z,3.85
2023-04-22T02:57:56.657Z,3.95
2023-04-22T03:00:23.178Z,3.92
2023-04-22T03:02:49.728Z,3.42
2023-04-22T03:05:18.629Z,4.07
2023-04-22T03:07:47.313Z,4.07
2023-04-22T03:10:15.139Z,4.07
2023-04-22T03:12:41.654Z,3.45
2023-04-22T03:15:08.965Z,2.90
2023-04-22T03:17:35.727Z,3.40
2023-04-22T03:20:07.145Z,3.10
2023-04-22T03:22:33.619Z,3.28
2023-04-22T03:25:01.644Z,3.42
2023-04-22T03:27:28.875Z,3.40
2023-04-22T03:29:55.274Z,3.58
2023-04-22T03:32:21.867Z,3.40
2023-04-22T03:34:56.040Z,3.30
2023-04-22T03:37:22.790Z,3.60
2023-04-22T03:39:49.127Z,3.10
2023-04-22T03:42:17.900Z,3.65
2023-04-22T03:44:45.982Z,3.53
2023-04-22T03:47:13.667Z,3.67
2023-04-22T03:49:45.581Z,3.55
2023-04-22T03:52:11.966Z,3.28
2023-04-22T03:54:44.025Z,3.50
2023-04-22T03:57:10.462Z,3.85
2023-04-22T03:59:38.451Z,3.63
2023-04-22T04:02:07.460Z,4.53
2023-04-22T04:04:34.907Z,3.42
2023-04-22T04:07:01.663Z,4.20
2023-04-22T04:09:28.777Z,4.22
2023-04-22T04:11:56.613Z,3.63
2023-04-22T04:14:23.583Z,3.97
2023-04-22T04:16:51.449Z,4.70
2023-04-22T04:19:25.789Z,3.63
2023-04-22T04:21:52.299Z,4.13
2023-04-22T04:24:20.284Z,3.72
2023-04-22T04:26:49.500Z,4.32
2023-04-22T04:29:21.001Z,3.63
2023-04-22T04:32:00.624Z,3.78
2023-04-22T04:34:27.963Z,3.70
2023-04-22T04:36:55.951Z,4.13
2023-04-22T04:39:28.723Z,4.65
2023-04-22T04:41:58.456Z,4.05
2023-04-22T04:44:27.194Z,3.72
2023-04-22T04:46:56.111Z,3.85
2023-04-22T04:49:22.796Z,3.75
2023-04-22T04:51:58.158Z,4.07
2023-04-22T04:54:26.020Z,4.03
2023-04-22T04:56:52.461Z,3.78
2023-04-22T04:59:18.949Z,4.05
2023-04-22T05:01:45.417Z,4.05
2023-04-22T05:04:12.980Z,3.65
2023-04-22T05:06:41.428Z,3.40
2023-04-22T05:09:08.197Z,3.25
2023-04-22T05:11:35.472Z,3.13
2023-04-22T05:14:07.693Z,3.92
2023-04-22T05:16:39.209Z,2.85
2023-04-22T05:19:07.191Z,3.20
2023-04-22T05:21:34.900Z,3.58
2023-04-22T05:24:01.592Z,3.42
2023-04-22T05:26:28.761Z,3.50
2023-04-22T05:28:55.289Z,3.35
2023-04-22T05:31:22.185Z,3.60
2023-04-22T05:33:48.705Z,3.30
2023-04-22T05:36:15.541Z,3.33
2023-04-22T05:38:43.438Z,3.47
2023-04-22T05:41:09.881Z,3.22
2023-04-22T05:43:36.269Z,3.10
2023-04-22T05:46:08.481Z,2.37
2023-04-22T05:48:37.649Z,3.38
2023-04-22T05:51:07.942Z,3.67
2023-04-22T05:53:34.990Z,3.47
2023-04-22T05:56:02.487Z,3.60
2023-04-22T05:58:28.960Z,2.40
2023-04-22T06:01:00.266Z,3.38
2023-04-22T06:03:45.415Z,2.67
2023-04-22T06:06:12.797Z,3.17
2023-04-22T06:08:39.264Z,2.75
2023-04-22T06:11:05.663Z,2.58
2023-04-22T06:13:34.833Z,2.17
2023-04-22T06:16:01.394Z,2.40
2023-04-22T06:18:28.937Z,2.45
2023-04-22T06:20:55.689Z,3.03
2023-04-22T06:23:22.185Z,2.10
2023-04-22T06:25:48.652Z,2.47
2023-04-22T06:28:16.044Z,2.70
2023-04-22T06:30:43.889Z,2.90
2023-04-22T06:33:10.501Z,2.58
2023-04-22T06:35:37.071Z,2.75
2023-04-22T06:38:03.462Z,2.22
2023-04-22T06:40:36.549Z,3.10
2023-04-22T06:43:28.917Z,2.70
2023-04-22T06:46:18.276Z,3.08
2023-04-22T06:49:07.297Z,2.65
2023-04-22T06:51:56.404Z,3.50
2023-04-22T06:54:23.165Z,2.97
2023-04-22T06:56:50.407Z,2.85
2023-04-22T06:59:16.925Z,2.80
2023-04-22T07:01:43.328Z,3.08
2023-04-22T07:04:09.912Z,3.53
2023-04-22T07:06:36.319Z,2.97
2023-04-22T07:09:03.671Z,3.65
2023-04-22T07:11:31.410Z,3.53
2023-04-22T07:14:02.148Z,3.43
2023-04-22T07:16:28.665Z,3.20
2023-04-22T07:18:55.319Z,3.33
2023-04-22T07:21:21.769Z,3.47
2023-04-22T07:23:48.501Z,3.50
2023-04-22T07:26:14.959Z,3.13
2023-04-22T07:28:41.429Z,3.05
2023-04-22T07:31:07.803Z,3.58
2023-04-22T07:33:34.179Z,2.88
2023-04-22T07:36:00.760Z,3.83
2023-04-22T07:38:27.227Z,3.40
2023-04-22T07:40:53.607Z,3.35
2023-04-22T07:43:20.162Z,3.40
2023-04-22T07:45:46.631Z,3.28
2023-04-22T07:48:13.040Z,3.35
2023-04-22T07:50:39.873Z,3.35
2023-04-22T07:53:06.351Z,2.92
2023-04-22T07:55:32.840Z,2.85
2023-04-22T07:58:00.935Z,3.28
2023-04-22T08:00:27.422Z,3.13
2023-04-22T08:02:53.915Z,2.40
2023-04-22T08:05:20.418Z,2.97
2023-04-22T08:07:46.840Z,2.85
2023-04-22T08:10:13.280Z,3.25
2023-04-22T08:12:39.653Z,3.40
2023-04-22T08:15:06.680Z,2.88
2023-04-22T08:17:33.167Z,2.92
2023-04-22T08:19:59.562Z,3.65
2023-04-22T08:22:27.427Z,3.38
2023-04-22T08:24:53.789Z,3.92
2023-04-22T08:27:22.019Z,3.92
2023-04-22T08:29:48.417Z,3.70
2023-04-22T08:32:14.874Z,3.67
2023-04-22T08:34:41.624Z,4.50
2023-04-22T08:37:08.416Z,3.53
2023-04-22T08:39:34.834Z,4.20
2023-04-22T08:42:02.112Z,3.33
2023-04-22T08:44:29.497Z,3.67
2023-04-22T08:46:56.408Z,4.30
2023-04-22T08:49:24.403Z,5.22
2023-04-22T08:51:50.899Z,4.57
2023-04-22T08:54:17.373Z,4.60
2023-04-22T08:56:45.214Z,6.03
2023-04-22T08:59:12.645Z,3.95
2023-04-22T09:01:41.170Z,4.43
2023-04-22T09:04:10.512Z,4.40
2023-04-22T09:06:38.628Z,4.65
2023-04-22T09:09:05.172Z,4.38
2023-04-22T09:11:33.173Z,5.07
2023-04-22T09:13:59.746Z,5.80
2023-04-22T09:16:26.383Z,5.80
2023-04-22T09:18:53.287Z,5.28
2023-04-22T09:21:20.656Z,6.03
2023-04-22T09:23:51.173Z,6.47
2023-04-22T09:26:27.420Z,6.55
2023-04-22T09:29:05.378Z,5.85
2023-04-22T09:31:32.601Z,6.40
2023-04-22T09:34:00.614Z,5.65
2023-04-22T09:36:33.906Z,6.32
2023-04-22T09:39:07.192Z,6.30
2023-04-22T09:41:39.068Z,7.07
2023-04-22T09:44:10.722Z,6.15
2023-04-22T09:46:37.180Z,6.00
2023-04-22T09:49:03.609Z,5.40
2023-04-22T09:51:30.643Z,5.88
2023-04-22T09:53:59.336Z,5.25
2023-04-22T09:56:51.768Z,5.85
2023-04-22T09:59:30.322Z,6.07
2023-04-22T10:02:00.000Z,5.32
2023-04-22T10:04:26.885Z,4.85
2023-04-22T10:06:53.880Z,5.50
2023-04-22T10:09:23.252Z,5.43
2023-04-22T10:11:54.053Z,4.95
2023-04-22T10:14:23.884Z,5.63
2023-04-22T10:16:54.076Z,5.15
2023-04-22T10:19:23.316Z,4.68
2023-04-22T10:21:54.627Z,5.40
2023-04-22T10:24:21.562Z,4.57
2023-04-22T10:26:59.725Z,4.93
2023-04-22T10:29:27.731Z,5.30
2023-04-22T10:32:05.589Z,4.72
2023-04-22T10:34:32.498Z,4.30
2023-04-22T10:37:07.791Z,4.90
2023-04-22T10:39:34.200Z,3.60
2023-04-22T10:42:03.955Z,3.42
2023-04-22T10:44:45.893Z,3.75
2023-04-22T10:47:12.459Z,4.13
2023-04-22T10:49:39.103Z,3.85
2023-04-22T10:52:07.744Z,3.17
2023-04-22T10:54:36.814Z,3.78
2023-04-22T10:57:04.085Z,4.15
2023-04-22T10:59:31.618Z,3.40
2023-04-22T11:02:02.303Z,3.92
2023-04-22T11:04:28.878Z,3.67
2023-04-22T11:07:31.638Z,2.45
2023-04-22T11:10:07.587Z,3.50
2023-04-22T11:12:39.792Z,2.55
2023-04-22T11:15:06.929Z,3.00
2023-04-22T11:17:34.021Z,2.78
2023-04-22T11:20:01.406Z,3.17
2023-04-22T11:22:28.108Z,2.80
2023-04-22T11:24:59.728Z,3.17
2023-04-22T11:27:27.026Z,3.10
2023-04-22T11:30:10.649Z,2.38
2023-04-22T11:32:39.419Z,2.50
2023-04-22T11:35:08.406Z,2.38
2023-04-22T11:37:48.236Z,2.20
2023-04-22T11:40:29.998Z,2.28
2023-04-22T11:43:00.158Z,2.35
2023-04-22T11:45:28.320Z,2.40
2023-04-22T11:47:55.170Z,2.65
2023-04-22T11:50:24.685Z,2.25
2023-04-22T11:52:57.943Z,1.90
2023-04-22T11:55:32.962Z,2.22
2023-04-22T11:58:07.250Z,1.77
2023-04-22T12:00:37.050Z,2.10
2023-04-22T12:03:07.765Z,1.85
2023-04-22T12:05:42.823Z,1.95
2023-04-22T12:08:11.208Z,1.98
2023-04-22T12:10:51.591Z,2.30
2023-04-22T12:13:31.802Z,2.20
2023-04-22T12:16:02.854Z,2.28
2023-04-22T12:18:33.957Z,2.08
2023-04-22T12:21:13.920Z,2.97
2023-04-22T12:23:44.020Z,2.00
2023-04-22T12:26:11.503Z,3.20
2023-04-22T12:28:38.698Z,2.60
2023-04-22T12:31:05.747Z,2.58
2023-04-22T12:33:32.687Z,2.90
2023-04-22T12:35:59.258Z,2.90
2023-04-22T12:38:26.704Z,2.70
2023-04-22T12:40:53.433Z,2.78
2023-04-22T12:43:19.859Z,2.40
2023-04-22T12:45:46.982Z,2.83
2023-04-22T12:48:13.573Z,2.28
2023-04-22T12:50:40.834Z,2.97
2023-04-22T12:53:07.308Z,2.15
2023-04-22T12:55:33.980Z,2.33
2023-04-22T12:58:00.486Z,2.20
2023-04-22T13:00:27.013Z,2.30
2023-04-22T13:02:53.580Z,1.88
2023-04-22T13:05:20.532Z,2.63
2023-04-22T13:07:56.285Z,2.40
2023-04-22T13:10:30.256Z,2.35
2023-04-22T13:13:06.457Z,2.28
2023-04-22T13:15:43.249Z,2.85
2023-04-22T13:18:12.373Z,2.25
2023-04-22T13:20:43.507Z,2.40
2023-04-22T13:23:13.261Z,1.83
2023-04-22T13:25:39.798Z,2.75
2023-04-22T13:28:06.353Z,2.58
2023-04-22T13:30:33.143Z,2.40
2023-04-22T13:32:59.541Z,2.75
2023-04-22T13:35:26.069Z,2.30
2023-04-22T13:37:52.604Z,3.42
2023-04-22T13:40:19.106Z,2.58
2023-04-22T13:42:45.560Z,1.80
2023-04-22T13:45:11.970Z,2.03
2023-04-22T13:47:38.412Z,2.10
2023-04-22T13:50:06.244Z,2.05
2023-04-22T13:52:32.936Z,4.10
2023-04-22T13:54:59.346Z,3.00
2023-04-22T13:57:25.981Z,3.03
2023-04-22T13:59:52.350Z,1.70
2023-04-22T14:02:18.777Z,3.38
2023-04-22T14:04:45.180Z,2.13
2023-04-22T14:07:12.212Z,1.80
2023-04-22T14:09:39.014Z,1.77
2023-04-22T14:12:07.538Z,2.10
2023-04-22T14:14:33.956Z,2.00
2023-04-22T14:17:00.411Z,2.42
2023-04-22T14:19:28.799Z,2.15
2023-04-22T14:21:55.318Z,1.98
2023-04-22T14:24:23.989Z,2.30
2023-04-22T14:26:52.066Z,2.47
2023-04-22T14:29:18.597Z,2.17
2023-04-22T14:31:45.133Z,2.65
2023-04-22T14:34:11.829Z,1.83
2023-04-22T14:36:38.195Z,2.20
2023-04-22T14:39:04.885Z,2.17
2023-04-22T14:41:31.299Z,2.30
2023-04-22T14:43:57.697Z,2.15
2023-04-22T14:46:24.139Z,2.35
2023-04-22T14:48:50.543Z,1.90
2023-04-22T14:51:17.108Z,2.22
2023-04-22T14:53:43.736Z,2.47
2023-04-22T14:56:11.789Z,2.35
2023-04-22T14:58:38.200Z,2.20
2023-04-22T15:01:07.417Z,2.90
2023-04-22T15:03:35.654Z,2.40
2023-04-22T15:06:02.837Z,2.47
2023-04-22T15:08:29.271Z,2.45
2023-04-22T15:10:55.818Z,2.28
2023-04-22T15:13:22.220Z,2.30
2023-04-22T15:15:48.780Z,2.47
2023-04-22T15:18:15.352Z,2.88
2023-04-22T15:20:41.801Z,2.10
2023-04-22T15:23:08.232Z,2.00
2023-04-22T15:25:35.576Z,2.40
2023-04-22T15:28:02.240Z,2.17
2023-04-22T15:30:28.620Z,2.45
2023-04-22T15:32:55.263Z,2.45
2023-04-22T15:35:23.827Z,1.90
2023-04-22T15:37:50.208Z,1.83
2023-04-22T15:40:16.609Z,2.15
2023-04-22T15:42:43.022Z,2.00
2023-04-22T15:45:09.817Z,2.08
2023-04-22T15:47:36.374Z,1.77
2023-04-22T15:50:06.598Z,3.35
2023-04-22T15:52:33.424Z,1.90
2023-04-22T15:55:01.585Z,2.67
2023-04-22T15:57:28.462Z,2.55
2023-04-22T16:00:06.992Z,1.90
2023-04-22T16:02:44.351Z,2.10
2023-04-22T16:05:11.767Z,2.28
2023-04-22T16:07:38.771Z,2.17
2023-04-22T16:10:05.626Z,2.05
2023-04-22T16:12:34.003Z,1.60
2023-04-22T16:15:01.216Z,2.58
2023-04-22T16:17:27.780Z,2.08
2023-04-22T16:19:54.883Z,2.40
2023-04-22T16:22:21.306Z,2.25
2023-04-22T16:24:47.678Z,1.95
2023-04-22T16:27:16.444Z,1.80
2023-04-22T16:29:43.531Z,2.00
2023-04-22T16:32:10.547Z,2.13
2023-04-22T16:34:37.988Z,2.10
2023-04-22T16:37:04.437Z,2.42
2023-04-22T16:39:31.061Z,2.47
2023-04-22T16:41:57.504Z,2.47
2023-04-22T16:44:23.872Z,2.40
2023-04-22T16:46:50.257Z,2.10
2023-04-22T16:49:16.627Z,2.38
2023-04-22T16:51:43.019Z,2.45
2023-04-22T16:54:09.396Z,2.45
2023-04-22T16:56:35.895Z,2.42
2023-04-22T16:59:02.409Z,2.45
2023-04-22T17:01:29.923Z,2.45
2023-04-22T17:03:57.056Z,2.40
2023-04-22T17:06:24.138Z,3.10
2023-04-22T17:08:52.378Z,2.45
2023-04-22T17:11:18.849Z,5.63
2023-04-22T17:13:45.233Z,3.08
2023-04-22T17:16:11.867Z,2.95
2023-04-22T17:18:38.268Z,2.78
2023-04-22T17:21:04.743Z,2.72
2023-04-22T17:23:31.250Z,1.70
2023-04-22T17:25:58.251Z,3.00
2023-04-22T17:28:24.649Z,2.30
2023-04-22T17:30:51.033Z,1.98
2023-04-22T17:33:17.520Z,2.22
2023-04-22T17:35:43.890Z,3.17
2023-04-22T17:38:10.292Z,2.95
2023-04-22T17:40:36.753Z,3.85
2023-04-22T17:43:03.179Z,3.72
2023-04-22T17:45:29.618Z,7.32
2023-04-22T17:47:56.079Z,6.90
2023-04-22T17:50:23.262Z,4.80
2023-04-22T17:52:49.712Z,7.25
2023-04-22T17:55:16.461Z,4.93
2023-04-22T17:57:42.905Z,3.90
2023-04-22T18:00:10.604Z,3.50
2023-04-22T18:02:39.179Z,3.90
2023-04-22T18:05:05.902Z,8.65
2023-04-22T18:07:32.418Z,3.30
2023-04-22T18:09:58.758Z,3.42
2023-04-22T18:12:30.364Z,3.40
2023-04-22T18:14:57.559Z,3.83
2023-04-22T18:17:24.027Z,5.30
2023-04-22T18:19:51.156Z,4.35
2023-04-22T18:22:18.539Z,3.28
2023-04-22T18:24:45.019Z,2.53
2023-04-22T18:27:11.437Z,2.95
2023-04-22T18:29:38.353Z,2.60
2023-04-22T18:32:05.188Z,3.22
2023-04-22T18:34:31.716Z,2.92
2023-04-22T18:36:58.603Z,2.83
2023-04-22T18:39:25.275Z,2.45
2023-04-22T18:41:51.984Z,3.40
2023-04-22T18:44:19.699Z,2.83
2023-04-22T18:46:46.360Z,2.38
2023-04-22T18:49:12.797Z,2.50
2023-04-22T18:51:41.931Z,3.38
2023-04-22T18:54:08.688Z,2.15
2023-04-22T18:56:35.401Z,2.72
2023-04-22T18:59:01.834Z,2.42
2023-04-22T19:01:28.640Z,2.65
2023-04-22T19:03:55.222Z,2.35
2023-04-22T19:06:21.674Z,2.58
2023-04-22T19:08:48.721Z,2.40
2023-04-22T19:11:16.942Z,2.25
2023-04-22T19:13:43.772Z,2.17
2023-04-22T19:16:10.160Z,3.35
2023-04-22T19:18:36.683Z,2.25
2023-04-22T19:21:03.827Z,2.10
2023-04-22T19:23:30.291Z,2.45
2023-04-22T19:25:56.790Z,3.05
2023-04-22T19:28:23.324Z,2.45
2023-04-22T19:30:49.742Z,2.35
2023-04-22T19:33:16.302Z,2.05
2023-04-22T19:35:42.670Z,2.50
2023-04-22T19:38:10.332Z,2.45
2023-04-22T19:40:36.793Z,2.67
2023-04-22T19:43:04.122Z,2.13
2023-04-22T19:45:30.530Z,2.78
2023-04-22T19:47:57.354Z,2.67
2023-04-22T19:50:24.047Z,2.65
2023-04-22T19:52:51.146Z,2.60
2023-04-22T19:55:18.633Z,3.70
2023-04-22T19:57:46.132Z,2.67
2023-04-22T20:00:12.919Z,3.03
2023-04-22T20:02:40.028Z,3.03
2023-04-22T20:05:07.260Z,2.53
2023-04-22T20:07:35.200Z,2.33
2023-04-22T20:10:06.744Z,2.10
2023-04-22T20:12:33.526Z,2.63
2023-04-22T20:15:00.756Z,2.15
2023-04-22T20:17:27.485Z,2.55
2023-04-22T20:19:55.002Z,2.45
2023-04-22T20:22:24.318Z,2.42
2023-04-22T20:25:02.022Z,2.33
2023-04-22T20:27:32.310Z,2.97
2023-04-22T20:29:59.925Z,2.63
2023-04-22T20:32:28.923Z,2.90
2023-04-22T20:34:55.959Z,2.40
2023-04-22T20:37:23.639Z,2.50
2023-04-22T20:39:51.075Z,2.50
2023-04-22T20:42:18.900Z,2.50
2023-04-22T20:44:45.629Z,3.03
2023-04-22T20:47:13.573Z,2.75
2023-04-22T20:49:41.862Z,3.70
2023-04-22T20:52:09.215Z,3.13
2023-04-22T20:54:36.739Z,2.60
2023-04-22T20:57:05.698Z,3.42
2023-04-22T20:59:33.067Z,3.50
2023-04-22T21:02:00.236Z,4.55
2023-04-22T21:04:27.950Z,3.78
2023-04-22T21:06:55.595Z,3.60
2023-04-22T21:09:26.195Z,4.07
2023-04-22T21:11:53.071Z,3.85
2023-04-22T21:14:21.956Z,3.25
2023-04-22T21:17:02.905Z,2.67
2023-04-22T21:19:36.264Z,3.08
2023-04-22T21:22:06.636Z,3.53
2023-04-22T21:24:34.948Z,3.30
2023-04-22T21:27:01.938Z,3.75
2023-04-22T21:29:28.898Z,4.15
2023-04-22T21:32:08.239Z,3.58
2023-04-22T21:34:36.346Z,3.45
2023-04-22T21:37:02.855Z,4.43
2023-04-22T21:39:29.593Z,3.70
2023-04-22T21:41:56.059Z,3.80
2023-04-22T21:44:23.694Z,3.88
2023-04-22T21:46:50.505Z,4.55
2023-04-22T21:49:17.092Z,3.80
2023-04-22T21:51:43.523Z,4.25
2023-04-22T21:54:09.929Z,4.03
2023-04-22T21:56:36.455Z,3.70
2023-04-22T21:59:02.833Z,3.72
2023-04-22T22:01:29.288Z,3.70
2023-04-22T22:03:55.854Z,3.60
2023-04-22T22:06:22.523Z,3.58
2023-04-22T22:08:48.952Z,3.60
2023-04-22T22:11:27.626Z,4.07
2023-04-22T22:13:56.640Z,3.88
2023-04-22T22:16:23.320Z,4.13
2023-04-22T22:18:50.500Z,3.95
2023-04-22T22:21:17.045Z,3.95
2023-04-22T22:23:43.498Z,4.18
2023-04-22T22:26:09.940Z,4.28
2023-04-22T22:28:36.352Z,4.55
2023-04-22T22:31:02.710Z,4.88
2023-04-22T22:33:29.653Z,5.15
2023-04-22T22:35:56.468Z,4.53
2023-04-22T22:38:22.835Z,4.65
2023-04-22T22:40:49.236Z,5.10
2023-04-22T22:43:16.078Z,4.65
2023-04-22T22:45:42.507Z,4.57
2023-04-22T22:48:09.014Z,4.25
2023-04-22T22:50:35.476Z,4.78
2023-04-22T22:53:01.876Z,3.80
2023-04-22T22:55:28.218Z,3.90
2023-04-22T22:57:54.594Z,4.47
2023-04-22T23:00:21.039Z,3.88
2023-04-22T23:02:47.869Z,5.13
2023-04-22T23:05:14.480Z,4.85
2023-04-22T23:07:41.404Z,4.40
2023-04-22T23:10:08.569Z,5.22
2023-04-22T23:12:35.402Z,4.57
2023-04-22T23:15:01.792Z,4.05
2023-04-22T23:17:28.467Z,4.55
2023-04-22T23:19:55.498Z,4.47
2023-04-22T23:22:22.970Z,4.90
2023-04-22T23:24:49.626Z,3.97
2023-04-22T23:27:17.291Z,4.35
2023-04-22T23:29:44.258Z,4.18
2023-04-22T23:32:15.158Z,4.40
2023-04-22T23:34:44.752Z,4.78
2023-04-22T23:37:14.318Z,4.63
2023-04-22T23:39:41.868Z,4.95
2023-04-22T23:42:08.264Z,5.45
2023-04-22T23:44:34.632Z,4.57
2023-04-22T23:47:01.131Z,4.38
2023-04-22T23:49:28.757Z,4.00
2023-04-22T23:51:55.750Z,5.03
2023-04-22T23:54:22.316Z,4.97
2023-04-22T23:56:48.997Z,5.78
2023-04-22T23:59:15.638Z,4.63
